Time;durP1;ratioP1;P1;durP2;ratioP2;P2;SDS_P1;SDS_P2;PMS_P1;PMS_P2;Temp;Humidity;BMP_temperature;BMP_pressure;BME280_temperature;BME280_humidity;BME280_pressure;Samples;Min_cycle;Max_cycle;Signal;HPM_P1;HPM_P2
2022/04/15 00:01:20;;;;;;;8.57;7.17;;;10.00;99.90;;;;;;5026597;28;20240;-69
2022/04/15 00:03:46;;;;;;;8.70;7.50;;;10.00;99.90;;;;;;5026393;28;20589;-69
2022/04/15 00:06:12;;;;;;;9.73;7.57;;;9.90;99.90;;;;;;5025639;28;20199;-69
2022/04/15 00:08:37;;;;;;;9.83;7.47;;;9.90;99.90;;;;;;5025566;28;20233;-69
2022/04/15 00:11:03;;;;;;;9.63;7.50;;;9.90;99.90;;;;;;5025545;28;20237;-68
2022/04/15 00:13:31;;;;;;;10.27;7.30;;;9.80;99.90;;;;;;5026488;28;20191;-69
2022/04/15 00:15:57;;;;;;;9.03;7.40;;;9.80;99.90;;;;;;5026394;28;20178;-70
2022/04/15 00:18:24;;;;;;;9.67;7.50;;;9.80;99.90;;;;;;5024907;28;20211;-69
2022/04/15 00:20:53;;;;;;;10.50;8.20;;;9.80;99.90;;;;;;5025926;28;20182;-70
2022/04/15 00:23:22;;;;;;;10.70;7.83;;;9.80;99.90;;;;;;5025323;28;20223;-69
2022/04/15 00:25:48;;;;;;;10.73;7.87;;;9.70;99.90;;;;;;5026124;28;20179;-68
2022/04/15 00:28:14;;;;;;;8.30;6.90;;;9.50;99.90;;;;;;5025095;28;20214;-69
2022/04/15 00:30:40;;;;;;;9.10;7.37;;;9.50;99.90;;;;;;5025669;28;20179;-68
2022/04/15 00:33:05;;;;;;;8.70;6.80;;;9.40;99.90;;;;;;5025963;28;20257;-73
2022/04/15 00:35:31;;;;;;;9.00;6.37;;;9.50;99.90;;;;;;5008370;28;20179;-68
2022/04/15 00:37:57;;;;;;;8.83;6.50;;;9.50;99.90;;;;;;5025516;28;20690;-69
2022/04/15 00:40:23;;;;;;;7.77;5.70;;;9.50;99.90;;;;;;5008178;28;20233;-70
2022/04/15 00:42:48;;;;;;;8.47;6.23;;;9.60;99.90;;;;;;5025651;28;20232;-69
2022/04/15 00:45:14;;;;;;;8.67;6.00;;;9.60;99.90;;;;;;5025783;28;20220;-68
2022/04/15 00:47:53;;;;;;;6.87;5.60;;;9.70;99.90;;;;;;5006639;28;20206;-67
2022/04/15 00:50:30;;;;;;;7.70;5.70;;;9.70;99.90;;;;;;5025455;28;20249;-70
2022/04/15 00:52:58;;;;;;;10.33;5.87;;;9.70;99.90;;;;;;5007918;28;20182;-69
2022/04/15 00:55:24;;;;;;;6.57;5.67;;;9.70;99.90;;;;;;5025168;28;20175;-68
2022/04/15 00:57:55;;;;;;;11.00;6.40;;;9.70;99.90;;;;;;5024727;28;20183;-68
2022/04/15 01:00:22;;;;;;;8.07;6.90;;;9.70;99.90;;;;;;5025950;28;20769;-67
2022/04/15 01:02:48;;;;;;;8.20;6.70;;;9.70;99.90;;;;;;5007858;28;20187;-70
2022/04/15 01:05:14;;;;;;;8.97;7.10;;;9.70;99.90;;;;;;5025514;28;20187;-71
2022/04/15 01:07:42;;;;;;;11.47;6.77;;;9.70;99.90;;;;;;5024210;28;20221;-69
2022/04/15 01:10:10;;;;;;;8.50;6.47;;;9.60;99.90;;;;;;5025205;28;20214;-69
2022/04/15 01:12:47;;;;;;;8.60;7.03;;;9.50;99.90;;;;;;5025436;28;20211;-69
2022/04/15 01:15:14;;;;;;;8.00;6.17;;;9.50;99.90;;;;;;5025165;28;20174;-69
2022/04/15 01:17:40;;;;;;;13.90;7.13;;;9.40;99.90;;;;;;5024106;28;20252;-72
2022/04/15 01:20:08;;;;;;;9.63;7.07;;;9.30;99.90;;;;;;5007432;28;20575;-67
2022/04/15 01:22:45;;;;;;;10.83;7.03;;;9.20;99.90;;;;;;5024914;28;20610;-69
2022/04/15 01:25:14;;;;;;;8.00;6.07;;;9.10;99.90;;;;;;5025101;28;20179;-69
2022/04/15 01:27:45;;;;;;;10.33;5.77;;;9.10;99.90;;;;;;5024182;28;20257;-70
2022/04/15 01:30:16;;;;;;;8.63;5.73;;;9.00;99.90;;;;;;5024995;28;20560;-68
2022/04/15 01:32:43;;;;;;;7.67;5.73;;;9.00;99.90;;;;;;5007142;28;20662;-69
2022/04/15 01:35:11;;;;;;;8.77;6.10;;;8.90;99.90;;;;;;5024723;28;20198;-66
2022/04/15 01:37:37;;;;;;;6.10;5.43;;;8.90;99.90;;;;;;5006280;28;20195;-69
2022/04/15 01:40:08;;;;;;;7.73;6.20;;;8.80;99.90;;;;;;5024898;28;20218;-67
2022/04/15 01:42:35;;;;;;;10.87;7.40;;;8.70;99.90;;;;;;5024914;28;20705;-68
2022/04/15 01:45:02;;;;;;;11.10;7.20;;;8.60;99.90;;;;;;5024772;28;20201;-67
2022/04/15 01:47:28;;;;;;;13.47;8.63;;;8.60;99.90;;;;;;5023258;28;20296;-69
2022/04/15 01:49:53;;;;;;;11.43;8.03;;;8.60;99.90;;;;;;5024297;28;20213;-68
2022/04/15 01:52:19;;;;;;;13.53;8.73;;;8.40;99.90;;;;;;5024122;28;20183;-67
2022/04/15 01:54:45;;;;;;;14.07;9.40;;;8.10;99.90;;;;;;5024464;28;20677;-68
2022/04/15 01:57:14;;;;;;;10.50;7.87;;;8.10;99.90;;;;;;5024275;28;20675;-68
2022/04/15 01:59:40;;;;;;;11.27;7.83;;;8.20;99.90;;;;;;5024053;28;20686;-68
2022/04/15 02:02:06;;;;;;;10.40;7.93;;;8.20;99.90;;;;;;5024522;28;20191;-69
2022/04/15 02:04:33;;;;;;;9.57;7.50;;;8.20;99.90;;;;;;5024067;28;20179;-70
2022/04/15 02:06:59;;;;;;;10.23;7.43;;;8.20;99.90;;;;;;5022423;28;20283;-70
2022/04/15 02:09:25;;;;;;;10.30;7.17;;;8.10;99.90;;;;;;5023788;28;20240;-68
2022/04/15 02:11:51;;;;;;;9.10;6.80;;;8.10;99.90;;;;;;5023924;28;20197;-71
2022/04/15 02:14:18;;;;;;;7.83;6.30;;;8.10;99.90;;;;;;5024159;28;20179;-67
2022/04/15 02:16:45;;;;;;;8.03;6.80;;;8.10;99.90;;;;;;5005813;28;20205;-70
2022/04/15 02:19:10;;;;;;;7.93;6.27;;;8.10;99.90;;;;;;5024431;28;20276;-68
2022/04/15 02:21:36;;;;;;;5.77;5.03;;;8.10;99.90;;;;;;5024581;28;20610;-69
2022/04/15 02:24:02;;;;;;;7.50;5.20;;;8.10;99.90;;;;;;5024200;28;20187;-68
2022/04/15 02:26:28;;;;;;;5.83;4.40;;;8.00;99.90;;;;;;5006364;28;20271;-69
2022/04/15 02:28:53;;;;;;;6.47;5.00;;;8.10;99.90;;;;;;5024307;28;20280;-68
2022/04/15 02:31:19;;;;;;;4.73;4.17;;;8.00;99.90;;;;;;5024409;28;20254;-69
2022/04/15 02:33:45;;;;;;;4.87;4.20;;;8.10;99.90;;;;;;5006175;28;20198;-68
2022/04/15 02:36:10;;;;;;;5.73;4.33;;;8.10;99.90;;;;;;5023258;28;20204;-70
2022/04/15 02:38:36;;;;;;;4.63;4.10;;;8.10;99.90;;;;;;5023475;28;20202;-71
2022/04/15 02:41:04;;;;;;;4.73;4.20;;;8.20;99.90;;;;;;5024266;28;20627;-69
2022/04/15 02:43:33;;;;;;;6.13;4.13;;;8.20;99.90;;;;;;5023827;28;20186;-68
2022/04/15 02:46:00;;;;;;;5.37;4.07;;;8.10;99.90;;;;;;5006569;28;20673;-67
2022/04/15 02:48:26;;;;;;;5.67;4.50;;;8.20;99.90;;;;;;5022840;28;20277;-67
2022/04/15 02:50:53;;;;;;;5.70;4.50;;;8.20;99.90;;;;;;5024668;28;20274;-69
2022/04/15 02:53:20;;;;;;;4.43;4.03;;;8.30;99.90;;;;;;5023780;28;20191;-68
2022/04/15 02:55:45;;;;;;;6.13;3.90;;;8.20;99.90;;;;;;5023683;28;20631;-68
2022/04/15 02:58:11;;;;;;;4.57;3.83;;;8.40;99.90;;;;;;5022202;28;20194;-72
2022/04/15 03:00:37;;;;;;;4.13;3.73;;;8.30;99.90;;;;;;5022071;28;20191;-68
2022/04/15 03:03:02;;;;;;;4.50;3.77;;;8.40;99.90;;;;;;5023585;28;20191;-67
2022/04/15 03:05:28;;;;;;;5.77;4.13;;;8.40;99.90;;;;;;5022891;28;20641;-70
2022/04/15 03:07:55;;;;;;;7.73;4.10;;;8.40;99.90;;;;;;5022920;28;20218;-69
2022/04/15 03:10:21;;;;;;;4.10;3.50;;;8.40;99.90;;;;;;5024039;28;20178;-67
2022/04/15 03:12:46;;;;;;;4.83;4.27;;;8.40;99.90;;;;;;5003783;28;20199;-68
2022/04/15 03:15:12;;;;;;;5.03;3.93;;;8.40;99.90;;;;;;5023586;28;20179;-67
2022/04/15 03:17:38;;;;;;;4.23;3.83;;;8.40;99.90;;;;;;5023387;28;20425;-69
2022/04/15 03:20:05;;;;;;;4.17;3.60;;;8.30;99.90;;;;;;5026756;28;20293;-67
2022/04/15 03:22:35;;;;;;;3.57;3.23;;;8.40;99.90;;;;;;5026567;28;20195;-68
2022/04/15 03:25:01;;;;;;;4.97;3.53;;;8.40;99.90;;;;;;5026137;28;20191;-68
2022/04/15 03:27:27;;;;;;;3.80;3.30;;;8.40;99.90;;;;;;5023082;28;20654;-69
2022/04/15 03:29:53;;;;;;;4.90;3.70;;;8.40;99.90;;;;;;5022906;28;20218;-69
2022/04/15 03:32:18;;;;;;;4.10;3.70;;;8.40;99.90;;;;;;5025186;28;20191;-68
2022/04/15 03:34:44;;;;;;;5.30;3.70;;;8.40;99.90;;;;;;5026609;28;20299;-71
2022/04/15 03:37:09;;;;;;;4.00;3.53;;;8.40;99.90;;;;;;5026226;28;20190;-69
2022/04/15 03:39:35;;;;;;;4.47;3.73;;;8.30;99.90;;;;;;5026500;28;20474;-69
2022/04/15 03:42:02;;;;;;;4.13;3.40;;;8.40;99.90;;;;;;5026776;28;20638;-68
2022/04/15 03:44:27;;;;;;;5.20;3.57;;;8.30;99.90;;;;;;5026338;28;20187;-67
2022/04/15 03:46:53;;;;;;;5.20;4.10;;;8.40;99.90;;;;;;5026561;28;20214;-69
2022/04/15 03:49:19;;;;;;;3.80;3.37;;;8.40;99.90;;;;;;5026218;28;20705;-68
2022/04/15 03:51:44;;;;;;;5.03;3.90;;;8.20;99.90;;;;;;5026953;28;20756;-67
2022/04/15 03:54:10;;;;;;;5.37;3.83;;;8.20;99.90;;;;;;5027113;28;20333;-69
2022/04/15 03:56:36;;;;;;;6.00;3.73;;;8.20;99.90;;;;;;5026297;28;20202;-68
2022/04/15 03:59:03;;;;;;;4.30;3.43;;;8.20;99.90;;;;;;5027054;28;20350;-72
2022/04/15 04:01:29;;;;;;;3.73;3.40;;;8.10;99.90;;;;;;5026948;28;20183;-67
2022/04/15 04:03:55;;;;;;;4.27;3.70;;;8.20;99.90;;;;;;5026400;28;20537;-69
2022/04/15 04:06:20;;;;;;;4.47;3.60;;;8.20;99.90;;;;;;5026126;28;20214;-68
2022/04/15 04:08:49;;;;;;;5.40;4.60;;;8.20;99.90;;;;;;5026395;28;20206;-71
2022/04/15 04:11:21;;;;;;;4.93;4.37;;;8.20;99.90;;;;;;5026418;28;20182;-69
2022/04/15 04:13:47;;;;;;;5.07;4.47;;;8.30;99.90;;;;;;5026764;28;20191;-67
2022/04/15 04:16:13;;;;;;;4.70;4.20;;;8.30;99.90;;;;;;5025845;28;20588;-70
2022/04/15 04:18:42;;;;;;;4.97;4.47;;;8.30;99.90;;;;;;5008132;28;20585;-68
2022/04/15 04:21:08;;;;;;;4.80;4.30;;;8.30;99.90;;;;;;5008785;28;20190;-68
2022/04/15 04:23:34;;;;;;;5.20;4.57;;;8.30;99.90;;;;;;5026479;28;20206;-68
2022/04/15 04:26:00;;;;;;;5.13;4.23;;;8.20;99.90;;;;;;5026329;28;20190;-68
2022/04/15 04:28:26;;;;;;;4.57;4.10;;;8.20;99.90;;;;;;5025028;28;20698;-67
2022/04/15 04:30:55;;;;;;;6.47;4.87;;;8.30;99.90;;;;;;5025480;28;20190;-68
2022/04/15 04:33:21;;;;;;;4.93;4.43;;;8.30;99.90;;;;;;5025850;28;20664;-68
2022/04/15 04:35:47;;;;;;;6.67;4.80;;;8.30;99.90;;;;;;5026019;28;20293;-67
2022/04/15 04:38:12;;;;;;;5.93;5.27;;;8.30;99.90;;;;;;5025050;28;20658;-71
2022/04/15 04:40:39;;;;;;;6.50;5.37;;;8.20;99.90;;;;;;5025676;28;20198;-69
2022/04/15 04:43:05;;;;;;;5.87;5.27;;;8.20;99.90;;;;;;5025639;28;20187;-68
2022/04/15 04:45:35;;;;;;;6.90;5.47;;;8.20;99.90;;;;;;5025696;28;20634;-67
2022/04/15 04:48:02;;;;;;;6.10;5.27;;;8.20;99.90;;;;;;5024780;28;20214;-68
2022/04/15 04:50:29;;;;;;;6.07;5.47;;;8.20;99.90;;;;;;5025460;28;20198;-66
2022/04/15 04:52:55;;;;;;;6.00;5.13;;;8.20;99.90;;;;;;5025595;28;20194;-70
2022/04/15 04:55:20;;;;;;;5.77;5.23;;;8.30;99.90;;;;;;5007785;28;20183;-67
2022/04/15 04:57:46;;;;;;;6.93;5.03;;;8.20;99.90;;;;;;5024866;28;20321;-68
2022/04/15 05:00:14;;;;;;;5.10;4.60;;;8.30;99.90;;;;;;5007624;28;20206;-68
2022/04/15 05:02:40;;;;;;;5.53;4.90;;;8.40;99.90;;;;;;5025374;28;20186;-68
2022/04/15 05:05:06;;;;;;;6.63;5.27;;;8.40;99.90;;;;;;5025598;28;20194;-67
2022/04/15 05:07:32;;;;;;;6.73;5.90;;;8.40;99.90;;;;;;5024353;28;20570;-68
2022/04/15 05:09:58;;;;;;;5.47;4.93;;;8.40;99.90;;;;;;5025248;28;20815;-68
2022/04/15 05:12:23;;;;;;;6.63;5.30;;;8.40;99.90;;;;;;5025462;28;20183;-68
2022/04/15 05:14:49;;;;;;;5.53;4.77;;;8.30;99.90;;;;;;5025084;28;20186;-68
2022/04/15 05:17:15;;;;;;;6.87;5.23;;;8.30;99.90;;;;;;5024848;28;20278;-68
2022/04/15 05:19:41;;;;;;;6.33;4.93;;;8.30;99.90;;;;;;5024948;28;20271;-68
2022/04/15 05:22:07;;;;;;;6.77;5.20;;;8.20;99.90;;;;;;5025274;28;20273;-68
2022/04/15 05:24:32;;;;;;;6.67;5.50;;;8.30;99.90;;;;;;5024896;28;20282;-68
2022/04/15 05:26:58;;;;;;;6.10;5.00;;;8.20;99.90;;;;;;5024400;28;20751;-67
2022/04/15 05:29:24;;;;;;;6.13;5.30;;;8.20;99.90;;;;;;5024805;28;20202;-70
2022/04/15 05:31:50;;;;;;;6.27;5.10;;;8.20;99.90;;;;;;5025190;28;20695;-70
2022/04/15 05:34:15;;;;;;;6.73;5.47;;;8.10;99.90;;;;;;5024719;28;20190;-67
2022/04/15 05:36:41;;;;;;;7.30;5.93;;;8.20;99.90;;;;;;5024191;28;20278;-69
2022/04/15 05:39:07;;;;;;;6.83;5.93;;;8.20;99.90;;;;;;5006704;28;20796;-67
2022/04/15 05:41:32;;;;;;;9.20;6.77;;;8.30;99.90;;;;;;5024723;28;20229;-68
2022/04/15 05:43:58;;;;;;;7.90;6.10;;;8.20;99.90;;;;;;5024902;28;20198;-68
2022/04/15 05:46:27;;;;;;;9.03;7.10;;;8.20;99.90;;;;;;5006276;28;20203;-68
2022/04/15 05:48:53;;;;;;;9.50;7.23;;;8.10;99.90;;;;;;5024078;28;20699;-69
2022/04/15 05:51:19;;;;;;;7.90;6.87;;;8.10;99.90;;;;;;5024838;28;20187;-67
2022/04/15 05:53:45;;;;;;;9.47;7.97;;;8.10;99.90;;;;;;5024350;28;20189;-67
2022/04/15 05:56:10;;;;;;;8.00;7.00;;;8.10;99.90;;;;;;5024324;28;20729;-69
2022/04/15 05:58:36;;;;;;;8.50;7.20;;;8.10;99.90;;;;;;5024035;28;20627;-69
2022/04/15 06:01:02;;;;;;;8.70;7.43;;;8.10;99.90;;;;;;5024952;28;20599;-69
2022/04/15 06:03:32;;;;;;;8.37;6.37;;;8.10;99.90;;;;;;5024511;28;20206;-70
2022/04/15 06:05:59;;;;;;;8.63;7.37;;;8.20;99.90;;;;;;5024627;28;20313;-67
2022/04/15 06:08:25;;;;;;;8.37;6.50;;;8.20;99.90;;;;;;5023337;28;20572;-69
2022/04/15 06:10:50;;;;;;;8.40;6.57;;;8.20;99.90;;;;;;5024663;28;20194;-68
2022/04/15 06:13:19;;;;;;;8.53;6.23;;;8.30;99.90;;;;;;5024071;28;20252;-68
2022/04/15 06:15:52;;;;;;;8.93;6.93;;;8.40;99.90;;;;;;5024340;28;20186;-69
2022/04/15 06:18:22;;;;;;;7.27;6.20;;;8.50;99.90;;;;;;5022927;28;20289;-69
2022/04/15 06:20:48;;;;;;;7.50;5.50;;;8.60;99.90;;;;;;5024387;28;20622;-68
2022/04/15 06:23:15;;;;;;;9.43;6.67;;;8.70;99.90;;;;;;5024558;28;20261;-68
2022/04/15 06:25:41;;;;;;;7.40;5.63;;;8.70;99.90;;;;;;5006769;28;20240;-68
2022/04/15 06:28:07;;;;;;;7.13;5.73;;;8.70;99.90;;;;;;5023676;28;20207;-68
2022/04/15 06:30:33;;;;;;;8.77;5.67;;;8.70;99.90;;;;;;5024399;28;20185;-67
2022/04/15 06:32:58;;;;;;;6.90;5.27;;;8.70;99.90;;;;;;5024703;28;20553;-69
2022/04/15 06:35:24;;;;;;;5.93;5.00;;;8.70;99.90;;;;;;5024261;28;20698;-68
2022/04/15 06:37:51;;;;;;;7.03;4.90;;;8.80;99.90;;;;;;5024185;28;20681;-68
2022/04/15 06:40:16;;;;;;;7.13;4.87;;;9.00;99.90;;;;;;5024007;28;20210;-68
2022/04/15 06:42:42;;;;;;;5.50;4.37;;;8.90;99.90;;;;;;5024512;28;20653;-69
2022/04/15 06:45:09;;;;;;;5.03;4.37;;;8.90;99.90;;;;;;5007512;28;20194;-69
2022/04/15 06:47:35;;;;;;;5.17;4.30;;;8.90;99.90;;;;;;5024009;28;20646;-69
2022/04/15 06:50:00;;;;;;;4.63;4.13;;;8.90;99.90;;;;;;5025022;28;21020;-68
2022/04/15 06:52:26;;;;;;;6.07;4.30;;;9.00;99.90;;;;;;5021819;28;20179;-69
2022/04/15 06:54:52;;;;;;;4.77;4.30;;;9.00;99.90;;;;;;5009889;28;20233;-67
2022/04/15 06:57:17;;;;;;;5.63;4.40;;;9.20;99.90;;;;;;5026612;28;20662;-66
2022/04/15 06:59:43;;;;;;;5.33;4.30;;;9.30;99.90;;;;;;5027565;28;20238;-68
2022/04/15 07:02:08;;;;;;;5.63;4.70;;;9.40;99.90;;;;;;5009525;28;20187;-70
2022/04/15 07:04:34;;;;;;;6.43;4.23;;;9.50;99.90;;;;;;5027771;28;20182;-68
2022/04/15 07:07:00;;;;;;;10.43;7.53;;;9.60;99.90;;;;;;5026892;28;20862;-68
2022/04/15 07:09:27;;;;;;;6.43;5.00;;;9.60;99.90;;;;;;5027398;28;20740;-68
2022/04/15 07:11:53;;;;;;;6.00;5.40;;;9.80;99.90;;;;;;5010028;28;20646;-68
2022/04/15 07:14:19;;;;;;;6.13;4.73;;;9.90;99.90;;;;;;5028517;28;20189;-68
2022/04/15 07:16:45;;;;;;;6.30;4.90;;;10.10;99.90;;;;;;5026878;28;20650;-67
2022/04/15 07:19:11;;;;;;;5.27;4.77;;;10.30;99.90;;;;;;5027779;28;20233;-68
2022/04/15 07:21:38;;;;;;;6.03;5.43;;;10.40;99.90;;;;;;5027519;28;20255;-67
2022/04/15 07:24:05;;;;;;;8.27;5.20;;;10.30;99.90;;;;;;5027983;28;20195;-67
2022/04/15 07:26:31;;;;;;;5.90;4.87;;;10.30;99.90;;;;;;5026822;28;20198;-68
2022/04/15 07:28:57;;;;;;;7.07;5.53;;;10.20;99.90;;;;;;5026564;28;20257;-67
2022/04/15 07:31:24;;;;;;;6.93;5.67;;;10.10;99.90;;;;;;5027541;28;20175;-67
2022/04/15 07:33:52;;;;;;;7.97;5.63;;;10.10;99.90;;;;;;5028080;28;20189;-66
2022/04/15 07:39:06;;;;;;;6.80;5.77;;;10.00;99.90;;;;;;5027358;28;20579;-67
2022/04/15 07:41:33;;;;;;;8.63;6.33;;;9.90;99.90;;;;;;5027396;28;20266;-71
2022/04/15 07:43:58;;;;;;;7.07;5.87;;;10.00;99.90;;;;;;5027204;28;20183;-67
2022/04/15 07:46:24;;;;;;;7.93;5.60;;;9.80;99.90;;;;;;5026982;28;20198;-67
2022/04/15 07:48:50;;;;;;;6.80;5.37;;;9.80;99.90;;;;;;5026047;28;20670;-67
2022/04/15 07:51:15;;;;;;;9.13;6.53;;;9.80;99.90;;;;;;5027020;28;20183;-68
2022/04/15 07:53:41;;;;;;;10.27;6.67;;;9.70;99.90;;;;;;5026575;28;20179;-67
2022/04/15 07:56:07;;;;;;;7.70;6.43;;;9.80;99.90;;;;;;5027176;28;20183;-67
2022/04/15 07:58:33;;;;;;;7.83;6.87;;;9.80;99.90;;;;;;5025651;28;20195;-67
2022/04/15 08:01:00;;;;;;;7.47;6.50;;;9.90;99.90;;;;;;5027113;28;20183;-66
2022/04/15 08:03:26;;;;;;;7.23;6.00;;;10.00;99.90;;;;;;5026349;28;20183;-67
2022/04/15 08:05:53;;;;;;;7.00;5.97;;;9.90;99.90;;;;;;5025765;28;20715;-66
2022/04/15 08:08:19;;;;;;;10.90;8.70;;;9.90;99.90;;;;;;5025734;28;20389;-68
2022/04/15 08:10:48;;;;;;;8.93;7.90;;;10.00;99.90;;;;;;5026898;28;20187;-67
2022/04/15 08:13:15;;;;;;;7.17;6.47;;;10.10;99.90;;;;;;5026508;28;20183;-66
2022/04/15 08:15:41;;;;;;;9.13;7.07;;;10.20;99.90;;;;;;5032974;28;21226;-67
2022/04/15 08:18:08;;;;;;;10.97;9.30;;;10.10;99.90;;;;;;5033001;28;20554;-67
2022/04/15 08:20:33;;;;;;;7.83;6.23;;;10.10;99.90;;;;;;5015215;28;20273;-68
2022/04/15 08:22:59;;;;;;;6.73;5.90;;;10.10;99.90;;;;;;5028415;28;20277;-66
2022/04/15 08:25:25;;;;;;;8.70;5.90;;;9.90;99.90;;;;;;5025773;28;20623;-67
2022/04/15 08:27:50;;;;;;;6.70;5.63;;;9.90;99.90;;;;;;5007600;28;20324;-67
2022/04/15 08:30:16;;;;;;;6.97;5.80;;;10.00;99.90;;;;;;5026076;28;20202;-67
2022/04/15 08:32:42;;;;;;;9.83;6.57;;;10.10;99.90;;;;;;5008381;28;20333;-66
2022/04/15 08:35:11;;;;;;;5.97;4.90;;;10.10;99.90;;;;;;5024906;28;20187;-69
2022/04/15 08:37:38;;;;;;;5.67;4.87;;;10.20;99.90;;;;;;5025129;28;20190;-67
2022/04/15 08:40:04;;;;;;;6.07;5.10;;;10.50;99.90;;;;;;5025484;28;20223;-67
2022/04/15 08:42:30;;;;;;;5.40;4.37;;;10.80;99.90;;;;;;5026069;28;20182;-67
2022/04/15 08:44:56;;;;;;;5.07;4.53;;;11.20;99.90;;;;;;5025735;28;20179;-71
2022/04/15 08:47:22;;;;;;;5.53;4.13;;;11.40;99.90;;;;;;5024667;28;20685;-69
2022/04/15 08:49:48;;;;;;;4.90;3.90;;;11.60;99.90;;;;;;5007591;28;20207;-68
2022/04/15 08:52:18;;;;;;;5.25;3.95;;;11.80;99.90;;;;;;5008216;28;20211;-71
2022/04/15 08:54:46;;;;;;;4.43;3.55;;;12.00;99.90;;;;;;5008037;28;20183;-67
2022/04/15 08:57:12;;;;;;;6.82;6.13;;;12.20;99.90;;;;;;5025923;28;20662;-70
2022/04/15 08:59:40;;;;;;;3.40;3.10;;;12.10;99.90;;;;;;5008005;28;20203;-67
2022/04/15 09:02:07;;;;;;;4.75;3.65;;;11.50;99.90;;;;;;5026668;28;21083;-66
2022/04/15 09:04:33;;;;;;;5.32;3.80;;;11.60;99.90;;;;;;5008073;28;20232;-66
2022/04/15 09:07:00;;;;;;;3.42;3.13;;;11.60;99.90;;;;;;5025131;28;20485;-66
2022/04/15 09:09:35;;;;;;;4.00;3.60;;;11.50;99.90;;;;;;5009066;28;20571;-67
2022/04/15 09:12:05;;;;;;;4.50;3.80;;;11.40;99.90;;;;;;5011690;28;20178;-67
2022/04/15 09:14:31;;;;;;;9.20;6.78;;;11.40;99.90;;;;;;5008571;28;20934;-68
2022/04/15 09:16:56;;;;;;;3.93;3.53;;;11.40;99.90;;;;;;5024700;28;20286;-68
2022/04/15 09:19:22;;;;;;;3.75;3.38;;;11.30;99.90;;;;;;5025349;28;20206;-67
2022/04/15 09:21:56;;;;;;;4.70;3.90;;;11.10;99.90;;;;;;5008267;28;20187;-69
2022/04/15 09:24:33;;;;;;;3.93;3.63;;;10.90;99.90;;;;;;5026359;28;20182;-69
2022/04/15 09:27:06;;;;;;;4.73;4.10;;;10.60;99.90;;;;;;5025257;28;20197;-67
2022/04/15 09:29:34;;;;;;;7.87;5.50;;;10.60;99.90;;;;;;5025226;28;20194;-69
2022/04/15 09:32:09;;;;;;;4.33;3.33;;;10.70;99.90;;;;;;5027323;28;21267;-67
2022/04/15 09:34:52;;;;;;;5.07;4.57;;;11.10;99.90;;;;;;5025513;28;20174;-70
2022/04/15 09:37:19;;;;;;;4.67;3.90;;;11.30;99.90;;;;;;5023651;28;20183;-69
2022/04/15 09:40:09;;;;;;;4.97;3.80;;;11.40;99.90;;;;;;5006057;28;20226;-67
2022/04/15 09:42:36;;;;;;;3.80;2.97;;;11.30;99.90;;;;;;5023202;28;20209;-67
2022/04/15 09:45:22;;;;;;;4.47;3.17;;;11.50;99.90;;;;;;5024552;28;20277;-66
2022/04/15 09:47:59;;;;;;;4.20;3.30;;;11.70;99.90;;;;;;5024020;28;20929;-67
2022/04/15 09:50:26;;;;;;;3.37;3.03;;;11.50;99.90;;;;;;5025291;28;20190;-68
2022/04/15 09:52:53;;;;;;;4.30;3.00;;;11.50;99.90;;;;;;5023502;28;20301;-67
2022/04/15 09:55:20;;;;;;;3.92;3.35;;;11.80;99.90;;;;;;5023347;28;20634;-67
2022/04/15 09:57:47;;;;;;;4.40;3.15;;;12.10;99.90;;;;;;5022680;28;20245;-68
2022/04/15 10:00:14;;;;;;;3.10;2.70;;;12.10;99.90;;;;;;5023703;28;20198;-67
2022/04/15 10:02:42;;;;;;;4.22;3.20;;;12.60;99.90;;;;;;5019253;28;20215;-67
2022/04/15 10:05:08;;;;;;;3.22;2.90;;;13.00;99.90;;;;;;5020918;28;20193;-68
2022/04/15 10:07:34;;;;;;;3.50;2.90;;;13.30;99.90;;;;;;5003190;28;20206;-67
2022/04/15 10:10:03;;;;;;;4.32;2.67;;;13.00;99.90;;;;;;5022554;28;20201;-67
2022/04/15 10:12:29;;;;;;;3.60;3.08;;;12.90;99.90;;;;;;5022487;28;20182;-66
2022/04/15 10:14:56;;;;;;;3.30;2.88;;;12.80;99.90;;;;;;5021770;28;20186;-67
2022/04/15 10:17:23;;;;;;;3.25;2.90;;;12.90;99.90;;;;;;5021228;28;20175;-69
2022/04/15 10:19:49;;;;;;;3.35;3.00;;;12.90;99.90;;;;;;5021899;28;20210;-68
2022/04/15 10:22:16;;;;;;;4.10;3.70;;;12.70;99.90;;;;;;5020813;28;20187;-67
2022/04/15 10:24:42;;;;;;;5.00;3.45;;;12.90;99.90;;;;;;5024410;28;20193;-68
2022/04/15 10:27:11;;;;;;;3.20;2.90;;;13.10;99.90;;;;;;5025094;28;20214;-69
2022/04/15 10:29:37;;;;;;;3.72;3.30;;;12.80;99.90;;;;;;5029338;28;20211;-66
2022/04/15 10:32:13;;;;;;;3.42;3.10;;;12.90;99.90;;;;;;5031206;28;20653;-68
2022/04/15 10:34:47;;;;;;;3.50;2.90;;;13.00;99.90;;;;;;5030222;28;20217;-66
2022/04/15 10:37:13;;;;;;;3.88;3.35;;;13.00;99.90;;;;;;5008635;28;20240;-69
2022/04/15 10:39:48;;;;;;;3.83;3.28;;;12.80;99.90;;;;;;5025654;28;20234;-67
2022/04/15 10:42:20;;;;;;;4.05;3.40;;;12.50;99.90;;;;;;5026033;28;20244;-69
2022/04/15 10:44:47;;;;;;;5.07;3.30;;;12.40;99.90;;;;;;5026163;28;20304;-67
2022/04/15 10:47:22;;;;;;;4.07;3.40;;;12.60;99.90;;;;;;5025254;28;20293;-67
2022/04/15 10:50:03;;;;;;;3.72;3.40;;;12.60;99.90;;;;;;5025539;28;20202;-67
2022/04/15 10:52:30;;;;;;;4.55;3.90;;;12.50;99.90;;;;;;5025657;28;20191;-67
2022/04/15 10:55:11;;;;;;;3.63;3.33;;;12.40;99.90;;;;;;5025451;28;20179;-70
2022/04/15 10:57:43;;;;;;;4.07;3.38;;;12.30;99.90;;;;;;5025116;28;20673;-67
2022/04/15 11:03:23;;;;;;;4.93;3.47;;;12.20;99.90;;;;;;5025750;28;20746;-67
2022/04/15 11:05:50;;;;;;;3.65;3.15;;;12.30;99.90;;;;;;5007438;28;20256;-70
2022/04/15 11:08:26;;;;;;;4.85;3.50;;;12.20;99.90;;;;;;5024722;28;20749;-66
2022/04/15 11:10:57;;;;;;;4.60;3.42;;;12.20;99.90;;;;;;5025716;28;20244;-69
2022/04/15 11:13:24;;;;;;;5.03;3.65;;;12.20;99.90;;;;;;5006696;28;20221;-68
2022/04/15 11:16:00;;;;;;;3.63;3.20;;;12.20;99.90;;;;;;5025362;28;20709;-67
2022/04/15 11:18:51;;;;;;;3.33;3.03;;;12.40;99.90;;;;;;5024230;28;20235;-68
2022/04/15 11:21:19;;;;;;;3.78;3.10;;;12.60;99.90;;;;;;5022762;28;20310;-68
2022/04/15 11:23:56;;;;;;;3.75;3.15;;;12.60;99.90;;;;;;5024846;28;20228;-67
2022/04/15 11:26:23;;;;;;;4.72;3.25;;;12.50;99.90;;;;;;5006717;28;20642;-66
2022/04/15 11:28:52;;;;;;;4.38;3.33;;;12.40;99.90;;;;;;5006432;28;20427;-66
2022/04/15 11:31:28;;;;;;;4.75;3.30;;;12.40;99.90;;;;;;5007387;28;20185;-70
2022/04/15 11:34:03;;;;;;;3.60;3.03;;;12.40;99.90;;;;;;5007377;28;20660;-67
2022/04/15 11:36:33;;;;;;;3.95;3.03;;;12.30;99.90;;;;;;5024658;28;21044;-67
2022/04/15 11:39:01;;;;;;;3.83;3.40;;;12.20;99.90;;;;;;5023927;28;20771;-68
2022/04/15 11:41:27;;;;;;;3.25;2.90;;;12.30;99.90;;;;;;5024689;28;20659;-67
2022/04/15 11:43:56;;;;;;;4.35;3.85;;;12.30;99.90;;;;;;5024789;28;20186;-67
2022/04/15 11:46:22;;;;;;;5.20;3.90;;;12.20;99.90;;;;;;5007028;28;20182;-67
2022/04/15 11:48:47;;;;;;;4.60;3.80;;;12.20;99.90;;;;;;5024136;28;20206;-69
2022/04/15 11:51:13;;;;;;;5.35;3.80;;;12.30;99.90;;;;;;5006760;28;20179;-66
2022/04/15 11:53:39;;;;;;;5.55;3.72;;;12.50;99.90;;;;;;5024198;28;20559;-66
2022/04/15 11:56:05;;;;;;;4.97;3.42;;;12.60;99.90;;;;;;5007406;28;20183;-69
2022/04/15 11:58:33;;;;;;;4.85;3.60;;;12.80;99.90;;;;;;5005949;28;20628;-69
2022/04/15 12:00:59;;;;;;;4.97;3.40;;;12.80;99.90;;;;;;5026239;28;20635;-68
2022/04/15 12:03:26;;;;;;;5.32;3.55;;;13.10;99.90;;;;;;5025670;28;20187;-68
2022/04/15 12:05:54;;;;;;;5.38;3.88;;;13.30;99.90;;;;;;5025723;28;20212;-68
2022/04/15 12:08:20;;;;;;;4.28;3.58;;;12.90;99.90;;;;;;5023402;28;20203;-69
2022/04/15 12:10:47;;;;;;;5.00;3.95;;;12.80;99.90;;;;;;5025714;28;20191;-68
2022/04/15 12:13:14;;;;;;;6.32;4.57;;;12.50;99.90;;;;;;5025689;28;20508;-66
2022/04/15 12:15:40;;;;;;;5.13;3.80;;;12.50;99.90;;;;;;5025966;28;20175;-68
2022/04/15 12:18:06;;;;;;;5.10;4.10;;;12.60;99.90;;;;;;5025319;28;20198;-68
2022/04/15 12:20:33;;;;;;;6.05;4.00;;;12.70;99.90;;;;;;5024923;28;20185;-67
2022/04/15 12:23:00;;;;;;;5.00;3.90;;;12.90;99.90;;;;;;5022937;28;20815;-69
2022/04/15 12:25:26;;;;;;;4.78;3.33;;;13.00;99.90;;;;;;5022651;28;20807;-68
2022/04/15 12:27:55;;;;;;;4.68;3.50;;;12.80;99.90;;;;;;5023555;28;20534;-69
2022/04/15 12:30:37;;;;;;;6.97;3.30;;;12.80;99.90;;;;;;5023837;28;20190;-69
2022/04/15 12:33:13;;;;;;;6.03;3.92;;;12.90;99.90;;;;;;5024624;28;20190;-69
2022/04/15 12:35:59;;;;;;;5.03;3.95;;;13.20;99.90;;;;;;5022561;28;20627;-70
2022/04/15 12:38:25;;;;;;;5.75;3.90;;;13.10;99.90;;;;;;5025863;28;20210;-69
2022/04/15 12:40:51;;;;;;;5.43;3.35;;;13.10;99.90;;;;;;5026062;28;20670;-68
2022/04/15 12:43:17;;;;;;;4.78;3.83;;;13.00;99.90;;;;;;5025726;28;20213;-68
2022/04/15 12:45:53;;;;;;;4.35;3.47;;;13.00;99.90;;;;;;5028718;28;20201;-69
2022/04/15 12:48:20;;;;;;;4.82;3.97;;;12.80;99.90;;;;;;5004074;28;20728;-69
2022/04/15 12:50:47;;;;;;;5.35;4.22;;;12.80;99.90;;;;;;5004148;28;20281;-69
2022/04/15 12:53:17;;;;;;;4.75;4.13;;;12.70;99.90;;;;;;5024977;28;20258;-68
2022/04/15 12:55:43;;;;;;;5.75;4.55;;;12.40;99.90;;;;;;5025029;28;20245;-68
2022/04/15 12:58:22;;;;;;;4.93;4.00;;;12.30;99.90;;;;;;5023125;28;20641;-67
2022/04/15 13:00:51;;;;;;;4.75;3.83;;;12.30;99.90;;;;;;5023203;28;20187;-68